METAR Data

Data at: 0520 UTC 18 Oct 2018

METAR for:KLGA (New York/La Guardia, NY, US)
Text:KLGA 180451Z 30014KT 10SM FEW060 09/M01 A3014 RMK AO2 PK WND 30030/0412 SLP206 T00941006 401780094 $
Temperature: 9.4°C ( 49°F)
Dewpoint: -0.6°C ( 31°F) [RH = 50%]
Pressure (altimeter):30.14 inches Hg (1020.7 mb) [Sea level pressure: 1020.6 mb]
Winds:from the WNW (300 degrees) at 16 MPH (14 knots; 7.2 m/s)
Visibility:10 or more sm (16+ km)
Ceiling:at least 12,000 feet AGL
Clouds: few clouds at 6000 feet AGL
QC Flag:SOME DATA ABOVE MAY BE INACCURATE!!!"$" is an indication the sensor requires maintenance.